Time;durP1;ratioP1;P1;durP2;ratioP2;P2;SDS_P1;SDS_P2;PMS_P1;PMS_P2;Temp;Humidity;BMP_temperature;BMP_pressure;BME280_temperature;BME280_humidity;BME280_pressure;Samples;Min_cycle;Max_cycle;Signal;HPM_P1;HPM_P2
2023/09/27 00:02:45;;;;;;;60.90;33.40;;;;;;;15.94;100.00;101196.19;214862;1285;140080;-87
2023/09/27 00:07:46;;;;;;;56.90;32.00;;;;;;;15.92;100.00;101195.08;215303;1284;139496;-87
2023/09/27 00:12:46;;;;;;;63.70;33.90;;;;;;;15.91;100.00;101191.98;214855;1285;142672;-87
2023/09/27 00:17:48;;;;;;;60.70;33.40;;;;;;;15.88;100.00;101188.25;215306;1285;139533;-86
2023/09/27 00:22:48;;;;;;;59.60;33.90;;;;;;;15.86;100.00;101191.26;214819;1285;140721;-87
2023/09/27 00:27:49;;;;;;;56.00;32.80;;;;;;;15.85;100.00;101188.95;215072;1285;97996;-87
2023/09/27 00:32:49;;;;;;;57.40;31.90;;;;;;;15.83;100.00;101187.84;214128;1285;141640;-87
2023/09/27 00:37:51;;;;;;;63.80;34.80;;;;;;;15.81;100.00;101184.04;214869;1288;139409;-86
2023/09/27 00:42:51;;;;;;;58.70;33.10;;;;;;;15.76;100.00;101185.68;214324;1286;140874;-85
2023/09/27 00:47:52;;;;;;;61.10;34.40;;;;;;;15.74;100.00;101187.51;214766;1288;139367;-85
2023/09/27 00:52:52;;;;;;;62.90;33.50;;;;;;;15.73;100.00;101182.27;214441;1285;141331;-87
2023/09/27 00:57:54;;;;;;;59.30;32.80;;;;;;;15.72;100.00;101183.62;215028;1288;107538;-85
2023/09/27 01:02:55;;;;;;;63.40;33.70;;;;;;;15.70;100.00;101181.96;214003;1285;140883;-86
2023/09/27 01:07:55;;;;;;;57.00;32.00;;;;;;;15.67;100.00;101179.17;215091;1286;139830;-87
2023/09/27 01:12:56;;;;;;;58.60;31.80;;;;;;;15.64;100.00;101182.81;215061;1286;142024;-86
2023/09/27 01:17:58;;;;;;;55.40;32.00;;;;;;;15.62;100.00;101188.83;215313;1286;140719;-87
2023/09/27 01:23:06;;;;;;;61.80;32.30;;;;;;;15.62;100.00;101184.63;214806;1285;141119;-86
2023/09/27 01:28:08;;;;;;;59.90;32.30;;;;;;;15.60;100.00;101179.78;214981;1286;107692;-87
2023/09/27 01:33:10;;;;;;;57.30;31.70;;;;;;;15.57;100.00;101175.50;214004;1287;142035;-86
2023/09/27 01:38:12;;;;;;;60.10;32.10;;;;;;;15.55;100.00;101178.75;214414;1287;139878;-86
2023/09/27 01:43:13;;;;;;;56.70;32.00;;;;;;;15.53;100.00;101176.91;214362;1285;141161;-86
2023/09/27 01:48:15;;;;;;;54.50;31.90;;;;;;;15.51;100.00;101175.32;215030;1288;139732;-87
2023/09/27 01:53:17;;;;;;;54.60;31.50;;;;;;;15.49;100.00;101173.96;214249;1288;141853;-87
2023/09/27 01:58:17;;;;;;;58.70;33.10;;;;;;;15.45;100.00;101173.25;214956;1285;139370;-86
2023/09/27 02:03:17;;;;;;;69.50;34.40;;;;;;;15.41;100.00;101170.85;214509;1285;141194;-86
2023/09/27 02:08:18;;;;;;;61.00;33.00;;;;;;;15.37;100.00;101175.43;214915;1284;139894;-86
2023/09/27 02:13:18;;;;;;;54.80;31.60;;;;;;;15.35;100.00;101177.33;214396;1286;141090;-87
2023/09/27 02:18:18;;;;;;;59.30;32.70;;;;;;;15.33;100.00;101173.42;214808;1286;139275;-86
2023/09/27 02:23:19;;;;;;;60.40;34.20;;;;;;;15.31;100.00;101176.16;214032;1288;141594;-86
2023/09/27 02:28:20;;;;;;;63.10;33.40;;;;;;;15.28;100.00;101172.99;214978;1286;139415;-85
2023/09/27 02:33:20;;;;;;;59.50;32.60;;;;;;;15.24;100.00;101171.55;214491;1286;141257;-86
2023/09/27 02:38:21;;;;;;;61.00;31.00;;;;;;;15.20;100.00;101166.46;214882;1286;139165;-86
2023/09/27 02:43:22;;;;;;;53.30;32.40;;;;;;;15.18;100.00;101165.34;214646;1284;141857;-86
2023/09/27 02:48:22;;;;;;;65.70;33.50;;;;;;;15.16;100.00;101163.02;214846;1284;139891;-86
2023/09/27 02:53:23;;;;;;;54.50;31.40;;;;;;;15.14;100.00;101155.26;214144;1285;140941;-86
2023/09/27 02:58:23;;;;;;;64.20;33.60;;;;;;;15.10;100.00;101153.36;214794;1286;139117;-86
2023/09/27 03:03:24;;;;;;;68.20;32.90;;;;;;;15.07;100.00;101155.63;214511;1288;141128;-86
2023/09/27 03:08:25;;;;;;;55.40;30.50;;;;;;;15.04;100.00;101161.09;214830;1286;138985;-86
2023/09/27 03:13:26;;;;;;;64.70;33.50;;;;;;;15.02;100.00;101160.77;214352;1286;141147;-86
2023/09/27 03:18:26;;;;;;;66.90;35.10;;;;;;;15.00;100.00;101155.67;214944;1286;139179;-86
2023/09/27 03:23:27;;;;;;;60.50;32.60;;;;;;;14.99;100.00;101163.28;213862;1286;140974;-86
2023/09/27 03:28:27;;;;;;;56.90;32.50;;;;;;;14.96;100.00;101166.13;214328;1286;139154;-86
2023/09/27 03:33:28;;;;;;;64.10;32.60;;;;;;;14.95;100.00;101168.09;214124;1287;141215;-86
2023/09/27 03:38:28;;;;;;;55.00;30.40;;;;;;;14.92;100.00;101168.70;214503;1290;139141;-86
2023/09/27 03:43:28;;;;;;;64.20;35.40;;;;;;;14.90;100.00;101169.25;213880;1290;141425;-86
2023/09/27 03:48:30;;;;;;;59.40;33.20;;;;;;;14.87;100.00;101164.96;214812;1287;139977;-86
2023/09/27 03:53:31;;;;;;;56.30;32.40;;;;;;;14.86;100.00;101166.86;214082;1286;140931;-87
2023/09/27 03:58:32;;;;;;;61.10;31.70;;;;;;;14.84;100.00;101164.55;214781;1287;139719;-86
2023/09/27 04:03:32;;;;;;;62.60;34.40;;;;;;;14.83;100.00;101163.75;214450;1288;141801;-86
2023/09/27 04:08:34;;;;;;;65.90;35.10;;;;;;;14.83;100.00;101166.84;215485;1284;139385;-86
2023/09/27 04:13:35;;;;;;;66.50;34.90;;;;;;;14.82;100.00;101175.54;215096;1288;142734;-86
2023/09/27 04:18:35;;;;;;;68.00;34.20;;;;;;;14.81;100.00;101175.55;215506;1288;139166;-85
2023/09/27 04:23:36;;;;;;;58.80;32.20;;;;;;;14.79;100.00;101179.17;214253;1288;142883;-86
2023/09/27 04:28:37;;;;;;;60.90;34.50;;;;;;;14.79;100.00;101186.13;214642;1287;139319;-86
2023/09/27 04:33:40;;;;;;;65.80;35.90;;;;;;;14.78;100.00;101191.27;214232;1287;141579;-87
2023/09/27 04:38:42;;;;;;;70.50;37.70;;;;;;;14.76;100.00;101183.59;214522;1291;139011;-87
2023/09/27 04:43:42;;;;;;;64.20;36.10;;;;;;;14.75;100.00;101186.42;214048;1288;142830;-87
2023/09/27 04:48:44;;;;;;;67.00;36.50;;;;;;;14.76;100.00;101193.48;214541;1287;139160;-87
2023/09/27 04:53:44;;;;;;;63.00;36.30;;;;;;;14.78;100.00;101196.03;214201;1284;141088;-87
2023/09/27 04:58:44;;;;;;;68.40;35.80;;;;;;;14.81;100.00;101195.73;215310;1285;140847;-86
2023/09/27 05:03:45;;;;;;;68.10;34.20;;;;;;;14.81;100.00;101199.05;214872;1286;141083;-86
2023/09/27 05:08:46;;;;;;;72.60;40.40;;;;;;;14.85;100.00;101200.97;215037;1288;139913;-86
2023/09/27 05:13:49;;;;;;;77.50;37.30;;;;;;;14.88;100.00;101204.16;214720;1285;142619;-86
2023/09/27 05:18:49;;;;;;;64.20;36.90;;;;;;;14.92;100.00;101204.73;215015;1284;139375;-86
2023/09/27 05:23:50;;;;;;;73.70;39.00;;;;;;;14.96;100.00;101204.69;213976;1286;141539;-86
2023/09/27 05:28:51;;;;;;;68.20;36.90;;;;;;;14.99;100.00;101205.18;214921;1290;139981;-87
2023/09/27 05:33:51;;;;;;;71.80;37.20;;;;;;;15.00;100.00;101207.33;214677;1290;142024;-86
2023/09/27 05:38:51;;;;;;;70.70;39.70;;;;;;;15.02;100.00;101208.05;216534;1286;139225;-86
2023/09/27 05:43:52;;;;;;;66.70;37.60;;;;;;;15.03;100.00;101210.19;218015;1286;141678;-86
2023/09/27 05:48:53;;;;;;;69.00;39.00;;;;;;;15.04;100.00;101212.73;219011;1285;139201;-86
2023/09/27 05:53:53;;;;;;;70.40;37.90;;;;;;;15.05;100.00;101217.56;217875;1285;141744;-85
2023/09/27 05:58:54;;;;;;;73.00;38.80;;;;;;;15.07;100.00;101211.40;218555;1285;138333;-85
2023/09/27 06:03:54;;;;;;;67.90;39.70;;;;;;;15.10;100.00;101215.92;217988;1286;141206;-86
2023/09/27 06:08:55;;;;;;;70.50;37.90;;;;;;;15.14;100.00;101219.91;218396;1287;140330;-86
2023/09/27 06:13:55;;;;;;;67.20;37.10;;;;;;;15.20;100.00;101228.73;218188;1286;142396;-86
2023/09/27 06:18:56;;;;;;;76.40;40.30;;;;;;;15.27;100.00;101232.34;219075;1284;139593;-86
2023/09/27 06:23:56;;;;;;;72.10;39.00;;;;;;;15.35;100.00;101235.73;218461;1286;141658;-86
2023/09/27 06:28:58;;;;;;;71.70;39.70;;;;;;;15.45;100.00;101244.88;218864;1286;139702;-86
2023/09/27 06:34:00;;;;;;;82.90;41.50;;;;;;;15.56;100.00;101249.46;218677;1285;141304;-86
2023/09/27 06:39:00;;;;;;;79.60;44.60;;;;;;;15.70;100.00;101264.56;219015;1288;139894;-84
2023/09/27 06:44:01;;;;;;;82.80;43.10;;;;;;;15.82;100.00;101268.90;218287;1286;142106;-83
2023/09/27 06:49:03;;;;;;;76.60;43.80;;;;;;;15.97;100.00;101263.14;218879;1284;139252;-84
2023/09/27 06:54:04;;;;;;;81.00;41.70;;;;;;;16.12;100.00;101263.97;217818;1285;140557;-84
2023/09/27 06:59:05;;;;;;;78.90;43.60;;;;;;;16.31;100.00;101266.48;218426;1286;139382;-85
2023/09/27 07:04:06;;;;;;;75.50;43.10;;;;;;;16.56;100.00;101269.67;217596;1290;141298;-85
2023/09/27 07:09:12;;;;;;;66.20;38.00;;;;;;;16.76;100.00;101271.26;218015;1287;139217;-85
2023/09/27 07:14:15;;;;;;;77.20;42.40;;;;;;;16.92;100.00;101277.28;218041;1287;242483;-85
2023/09/27 07:19:17;;;;;;;71.30;41.20;;;;;;;17.10;100.00;101272.81;217860;1287;142268;-86
2023/09/27 07:24:18;;;;;;;65.40;41.70;;;;;;;17.31;100.00;101279.05;218800;1285;139423;-85
2023/09/27 07:29:19;;;;;;;66.90;37.70;;;;;;;17.50;100.00;101281.63;218355;1288;142593;-85
2023/09/27 07:34:20;;;;;;;58.50;35.50;;;;;;;17.68;100.00;101285.06;218118;1285;139639;-86
2023/09/27 07:39:20;;;;;;;68.10;36.10;;;;;;;17.85;100.00;101296.05;218076;1286;143304;-85
2023/09/27 07:44:21;;;;;;;60.40;34.40;;;;;;;18.01;100.00;101297.23;218857;1286;139126;-86
2023/09/27 07:49:23;;;;;;;64.40;34.20;;;;;;;18.22;100.00;101304.83;218387;1286;141622;-85
2023/09/27 07:54:24;;;;;;;58.30;32.90;;;;;;;18.44;100.00;101307.27;218840;1285;139208;-86
2023/09/27 07:59:24;;;;;;;50.30;29.60;;;;;;;18.69;100.00;101311.94;218147;1286;140596;-85
2023/09/27 08:04:24;;;;;;;47.20;29.00;;;;;;;18.93;100.00;101308.39;218891;1287;139252;-86
2023/09/27 08:09:25;;;;;;;43.20;26.90;;;;;;;19.17;100.00;101311.52;217897;1286;142145;-85
2023/09/27 08:14:26;;;;;;;41.00;24.90;;;;;;;19.45;100.00;101311.07;218239;1287;139001;-85
2023/09/27 08:19:26;;;;;;;38.40;23.20;;;;;;;19.73;100.00;101317.61;217902;1285;141647;-86
2023/09/27 08:24:27;;;;;;;117.90;26.70;;;;;;;20.03;100.00;101317.64;218616;1285;139520;-86
2023/09/27 08:29:28;;;;;;;61.90;22.80;;;;;;;20.32;100.00;101310.30;218419;1285;142331;-87
2023/09/27 08:34:28;;;;;;;79.60;23.90;;;;;;;20.60;100.00;101304.83;218866;1285;139388;-87
2023/09/27 08:39:30;;;;;;;31.10;19.00;;;;;;;20.93;100.00;101302.46;218472;1286;141708;-85
2023/09/27 08:44:32;;;;;;;32.10;18.10;;;;;;;21.27;100.00;101296.48;218746;1286;140327;-86
2023/09/27 08:49:34;;;;;;;59.50;19.10;;;;;;;21.69;100.00;101295.25;218230;1285;141443;-86
2023/09/27 08:54:34;;;;;;;38.70;17.40;;;;;;;22.26;100.00;101290.34;219018;1288;139285;-85
2023/09/27 08:59:35;;;;;;;27.40;14.00;;;;;;;22.92;100.00;101291.94;218397;1286;141680;-86
2023/09/27 09:04:36;;;;;;;35.20;15.00;;;;;;;23.62;100.00;101288.45;217631;1285;140069;-86
2023/09/27 09:09:39;;;;;;;33.20;14.20;;;;;;;24.37;100.00;101292.93;216422;1288;141201;-86
2023/09/27 09:14:49;;;;;;;74.10;14.70;;;;;;;25.17;100.00;101293.71;216687;1286;139257;-86
2023/09/27 09:20:15;;;;;;;26.10;13.40;;;;;;;26.05;98.76;101287.38;216179;1284;142386;-87
2023/09/27 09:25:15;;;;;;;23.10;13.80;;;;;;;26.84;93.22;101283.29;216607;1288;139010;-85
2023/09/27 09:30:17;;;;;;;25.50;12.80;;;;;;;27.46;91.56;101284.63;215969;1285;142709;-86
2023/09/27 09:35:31;;;;;;;20.80;12.20;;;;;;;28.19;88.87;101286.27;216098;1288;139429;-85
2023/09/27 09:40:34;;;;;;;22.10;12.90;;;;;;;28.85;83.36;101280.19;215505;1287;141866;-86
2023/09/27 09:45:43;;;;;;;21.80;12.00;;;;;;;29.34;79.15;101281.61;215807;1286;98584;-86
2023/09/27 09:50:43;;;;;;;24.50;11.00;;;;;;;29.69;76.50;101275.30;215494;1289;141046;-86
2023/09/27 09:55:55;;;;;;;21.80;12.10;;;;;;;30.06;73.20;101275.79;216439;1285;138395;-86
2023/09/27 10:01:01;;;;;;;19.40;10.50;;;;;;;30.35;71.42;101270.42;215198;1289;141635;-87
2023/09/27 10:06:17;;;;;;;16.00;10.00;;;;;;;30.65;69.20;101263.57;216319;1285;139094;-86
2023/09/27 10:11:17;;;;;;;16.30;10.00;;;;;;;30.93;66.06;101261.32;216032;1285;140477;-86
2023/09/27 10:16:22;;;;;;;18.00;10.70;;;;;;;31.15;64.30;101263.23;214863;1290;138531;-86
2023/09/27 10:21:23;;;;;;;;;;;;;;;31.19;62.81;101264.30;215293;1288;140731;-87
2023/09/27 10:26:27;;;;;;;22.10;10.00;;;;;;;30.95;62.84;101264.35;216030;1289;124782;-88
2023/09/27 10:31:27;;;;;;;15.70;10.10;;;;;;;30.75;61.18;101257.55;215354;1286;141338;-86
2023/09/27 10:36:30;;;;;;;17.70;10.40;;;;;;;30.54;60.93;101247.73;216098;1288;139165;-86
2023/09/27 10:41:42;;;;;;;22.50;9.90;;;;;;;30.42;59.94;101241.52;215646;1286;141096;-87
2023/09/27 10:46:51;;;;;;;23.10;10.90;;;;;;;30.57;59.86;101236.42;216155;1286;138866;-86
2023/09/27 10:51:53;;;;;;;16.40;10.40;;;;;;;30.80;59.45;101233.98;215137;1287;140628;-88
2023/09/27 10:56:53;;;;;;;20.00;10.20;;;;;;;30.81;58.48;101228.77;215974;1286;138244;-88
2023/09/27 11:01:59;;;;;;;20.40;9.50;;;;;;;30.79;58.24;101218.40;215191;1288;212499;-88
2023/09/27 11:06:59;;;;;;;23.50;9.10;;;;;;;30.65;57.59;101218.09;216001;1286;138670;-87
2023/09/27 11:12:00;;;;;;;22.00;9.30;;;;;;;30.60;57.31;101219.66;215753;1286;139778;-87
2023/09/27 11:17:22;;;;;;;16.60;9.20;;;;;;;30.67;57.17;101210.90;216011;1286;138667;-86
2023/09/27 11:22:32;;;;;;;23.10;8.70;;;;;;;30.63;56.17;101199.27;215404;1287;140788;-86
2023/09/27 11:27:32;;;;;;;21.80;10.00;;;;;;;30.56;55.89;101188.34;215215;1290;98630;-86
2023/09/27 11:32:48;;;;;;;18.40;8.60;;;;;;;30.47;56.08;101181.26;215397;1285;139736;-87
2023/09/27 11:37:49;;;;;;;15.20;8.90;;;;;;;30.45;56.23;101173.73;216293;1285;138078;-86
2023/09/27 11:42:50;;;;;;;19.90;8.90;;;;;;;30.38;55.71;101174.81;215468;1286;140539;-85
2023/09/27 11:47:51;;;;;;;19.80;8.10;;;;;;;30.18;53.99;101172.56;215802;1285;138283;-86
2023/09/27 11:52:51;;;;;;;19.60;9.00;;;;;;;29.93;54.41;101169.78;215390;1286;141789;-87
2023/09/27 11:57:57;;;;;;;21.60;8.50;;;;;;;29.84;53.65;101175.47;216027;1285;97859;-85
2023/09/27 12:02:58;;;;;;;14.90;7.30;;;;;;;29.71;53.28;101172.11;215433;1286;140126;-85
2023/09/27 12:07:58;;;;;;;17.60;8.10;;;;;;;29.62;53.19;101164.10;216047;1286;138192;-85
2023/09/27 12:12:59;;;;;;;17.90;8.40;;;;;;;29.48;53.73;101161.10;215422;1286;139976;-85
2023/09/27 12:18:11;;;;;;;14.30;7.60;;;;;;;29.48;52.77;101157.55;215979;1284;138630;-85
2023/09/27 12:23:12;;;;;;;20.90;7.70;;;;;;;29.46;51.85;101152.00;215031;1285;140762;-86
2023/09/27 12:28:14;;;;;;;23.70;8.10;;;;;;;29.42;52.33;101151.63;216168;1284;97887;-85
2023/09/27 12:33:15;;;;;;;21.30;7.70;;;;;;;29.32;51.15;101148.40;215192;1286;138879;-85
2023/09/27 12:38:15;;;;;;;16.10;6.40;;;;;;;29.22;50.73;101143.55;216202;1286;138790;-85
2023/09/27 12:43:16;;;;;;;18.20;6.80;;;;;;;29.03;51.28;101139.48;215558;1285;140301;-86
2023/09/27 12:48:16;;;;;;;14.20;6.60;;;;;;;28.91;50.58;101140.17;215953;1285;138490;-84
2023/09/27 12:53:17;;;;;;;12.80;6.80;;;;;;;28.83;49.82;101137.83;215412;1285;140110;-84
2023/09/27 12:58:17;;;;;;;14.10;6.30;;;;;;;28.76;49.17;101136.61;216179;1285;97998;-86
2023/09/27 13:03:17;;;;;;;17.50;6.90;;;;;;;28.62;48.85;101132.56;215169;1288;140546;-86
2023/09/27 13:08:18;;;;;;;18.00;6.50;;;;;;;28.46;48.91;101121.89;215248;1286;138754;-85
2023/09/27 13:13:18;;;;;;;21.00;7.40;;;;;;;28.37;48.49;101117.10;215193;1285;140683;-86
2023/09/27 13:18:19;;;;;;;17.90;7.00;;;;;;;28.31;48.58;101114.39;215819;1285;138286;-86
2023/09/27 13:23:20;;;;;;;14.50;6.70;;;;;;;28.19;48.76;101111.73;215278;1285;140331;-86
2023/09/27 13:28:20;;;;;;;15.90;7.70;;;;;;;28.13;49.24;101105.54;215635;1288;138264;-84
2023/09/27 13:33:21;;;;;;;17.00;6.70;;;;;;;28.12;49.27;101098.19;214855;1286;141356;-83
2023/09/27 13:38:21;;;;;;;11.70;5.70;;;;;;;28.05;48.71;101096.44;214820;1287;138057;-83
2023/09/27 13:43:22;;;;;;;15.50;6.00;;;;;;;27.98;48.60;101092.80;214192;1286;141138;-84
2023/09/27 13:48:22;;;;;;;19.60;5.90;;;;;;;27.93;48.14;101085.27;214626;1286;138283;-84
2023/09/27 13:53:23;;;;;;;15.00;6.30;;;;;;;27.87;46.95;101084.15;214175;1288;141002;-86
2023/09/27 13:58:23;;;;;;;11.30;5.50;;;;;;;27.79;46.77;101079.52;214675;1288;138160;-85
2023/09/27 14:03:24;;;;;;;16.30;6.00;;;;;;;27.72;46.84;101069.77;213903;1289;139638;-84
2023/09/27 14:08:24;;;;;;;13.40;6.20;;;;;;;27.66;46.23;101071.52;214729;1288;138083;-85
2023/09/27 14:13:26;;;;;;;12.80;6.90;;;;;;;27.57;46.89;101067.83;214185;1286;139749;-85
2023/09/27 14:18:27;;;;;;;13.30;6.30;;;;;;;27.48;45.79;101063.14;214907;1285;138612;-86
2023/09/27 14:23:28;;;;;;;11.90;5.80;;;;;;;27.38;46.12;101056.87;214468;1286;140153;-86
2023/09/27 14:28:28;;;;;;;14.20;6.00;;;;;;;27.31;47.12;101061.38;215041;1285;138476;-86
2023/09/27 14:33:29;;;;;;;13.40;5.40;;;;;;;27.20;46.74;101055.71;214602;1286;139745;-85
2023/09/27 14:38:33;;;;;;;12.70;6.00;;;;;;;27.12;46.86;101055.42;214632;1290;137956;-85
2023/09/27 14:43:38;;;;;;;21.50;6.30;;;;;;;27.07;46.54;101057.08;214195;1285;139578;-86
2023/09/27 14:48:40;;;;;;;18.80;6.80;;;;;;;26.98;46.57;101050.27;214887;1287;138107;-84
2023/09/27 14:53:43;;;;;;;14.70;5.90;;;;;;;26.89;45.49;101050.48;213910;1286;139696;-84
2023/09/27 14:58:44;;;;;;;13.10;5.40;;;;;;;26.79;46.65;101047.05;214486;1286;138277;-85
2023/09/27 15:03:45;;;;;;;12.50;6.30;;;;;;;26.70;46.32;101047.66;214020;1287;140777;-85
2023/09/27 15:08:47;;;;;;;9.40;5.10;;;;;;;26.61;46.56;101052.35;214923;1285;137925;-83
2023/09/27 15:13:47;;;;;;;15.10;5.80;;;;;;;26.54;46.73;101056.03;214159;1286;138756;-85
2023/09/27 15:18:49;;;;;;;12.90;6.20;;;;;;;26.44;46.13;101051.21;214642;1286;138134;-85
2023/09/27 15:23:50;;;;;;;13.20;5.80;;;;;;;26.33;46.80;101047.52;213909;1286;141256;-85
2023/09/27 15:28:50;;;;;;;15.80;6.00;;;;;;;26.25;47.73;101044.80;214531;1290;139134;-84
2023/09/27 15:33:50;;;;;;;16.60;5.10;;;;;;;26.16;47.85;101039.23;214833;1285;141182;-84
2023/09/27 15:38:51;;;;;;;12.70;5.90;;;;;;;26.05;47.73;101036.23;215001;1285;138067;-86
2023/09/27 15:43:51;;;;;;;19.10;5.70;;;;;;;25.95;49.56;101035.15;214660;1285;140344;-85
2023/09/27 15:48:52;;;;;;;10.60;5.50;;;;;;;25.83;49.87;101036.98;215114;1284;138374;-86
2023/09/27 15:53:53;;;;;;;14.30;6.10;;;;;;;25.72;50.53;101032.84;214256;1287;140105;-84
2023/09/27 15:58:54;;;;;;;13.50;5.50;;;;;;;25.56;52.27;101037.70;215286;1285;138651;-85
2023/09/27 16:03:55;;;;;;;17.10;6.70;;;;;;;25.29;55.13;101039.77;214319;1290;140037;-86
2023/09/27 16:08:56;;;;;;;10.20;6.10;;;;;;;25.01;57.25;101041.90;215524;1286;138751;-86
2023/09/27 16:13:57;;;;;;;17.20;6.20;;;;;;;24.78;59.39;101036.50;214838;1285;139981;-85
2023/09/27 16:18:57;;;;;;;15.60;6.40;;;;;;;24.55;60.92;101035.02;215505;1285;138641;-84
2023/09/27 16:24:00;;;;;;;16.10;6.90;;;;;;;24.30;62.05;101036.93;215025;1286;139887;-86
2023/09/27 16:29:02;;;;;;;11.50;6.20;;;;;;;24.04;63.04;101041.88;215683;1288;139966;-85
2023/09/27 16:34:03;;;;;;;18.20;7.70;;;;;;;23.80;64.21;101045.83;215267;1286;140360;-86
2023/09/27 16:39:06;;;;;;;14.60;7.80;;;;;;;23.56;65.00;101044.23;215302;1286;139529;-86
2023/09/27 16:44:07;;;;;;;16.00;7.20;;;;;;;23.31;65.96;101045.00;214920;1285;139579;-86
2023/09/27 16:49:08;;;;;;;11.40;6.40;;;;;;;23.06;66.81;101042.80;215067;1285;140756;-84
2023/09/27 16:54:08;;;;;;;17.30;7.40;;;;;;;22.83;68.43;101042.44;214773;1288;138555;-84
2023/09/27 16:59:10;;;;;;;19.80;8.00;;;;;;;22.59;70.00;101041.77;214328;1286;140373;-85
2023/09/27 17:04:11;;;;;;;20.70;7.80;;;;;;;22.31;71.40;101042.95;214898;1287;98742;-86
2023/09/27 17:09:14;;;;;;;20.10;9.80;;;;;;;22.03;72.96;101042.23;214621;1287;139876;-86
2023/09/27 17:14:14;;;;;;;18.80;8.70;;;;;;;21.80;73.95;101043.63;214670;1287;138065;-88
2023/09/27 17:19:24;;;;;;;22.00;8.80;;;;;;;21.57;74.60;101041.20;214318;1285;140130;-87
2023/09/27 17:24:25;;;;;;;18.80;7.90;;;;;;;21.34;75.63;101042.79;214656;1287;138145;-87
2023/09/27 17:29:25;;;;;;;16.70;8.80;;;;;;;21.12;76.42;101041.85;214372;1286;140619;-88
2023/09/27 17:34:26;;;;;;;20.70;8.60;;;;;;;20.90;77.29;101041.61;215593;1286;138767;-88
2023/09/27 17:39:26;;;;;;;22.30;9.00;;;;;;;20.71;77.78;101038.48;214884;1288;142812;-86
2023/09/27 17:44:28;;;;;;;25.70;9.20;;;;;;;20.48;78.84;101039.50;216125;1285;139149;-88
2023/09/27 17:49:28;;;;;;;20.30;10.30;;;;;;;20.34;79.57;101037.31;214805;1286;141097;-89
2023/09/27 17:54:29;;;;;;;23.90;10.40;;;;;;;20.22;80.08;101031.05;215929;1284;139905;-88
2023/09/27 17:59:29;;;;;;;22.10;9.20;;;;;;;20.06;80.79;101028.64;215500;1285;142065;-88
2023/09/27 18:04:30;;;;;;;19.50;10.00;;;;;;;19.88;81.33;101033.48;216526;1285;139383;-88
2023/09/27 18:09:35;;;;;;;16.80;9.70;;;;;;;19.68;82.15;101037.11;216486;1287;143943;-88
2023/09/27 18:14:35;;;;;;;14.70;10.30;;;;;;;19.50;82.87;101040.18;215918;1286;139408;-87
2023/09/27 18:19:36;;;;;;;16.60;9.70;;;;;;;19.30;83.32;101037.06;215388;1285;141737;-87
2023/09/27 18:24:36;;;;;;;17.30;9.40;;;;;;;19.17;84.02;101037.06;216104;1284;139152;-88
2023/09/27 18:29:36;;;;;;;20.20;10.20;;;;;;;19.04;84.33;101039.80;215635;1284;141228;-87
2023/09/27 18:34:37;;;;;;;20.90;10.80;;;;;;;18.88;84.96;101043.68;216366;1285;139081;-88
2023/09/27 18:39:37;;;;;;;16.80;10.00;;;;;;;18.75;85.80;101045.91;216221;1285;142008;-91
2023/09/27 18:44:39;;;;;;;21.90;10.00;;;;;;;18.66;86.28;101038.62;216442;1287;139315;-87
2023/09/27 18:49:40;;;;;;;18.30;11.20;;;;;;;18.58;86.83;101036.95;215606;1285;141607;-87
2023/09/27 18:54:41;;;;;;;17.40;10.20;;;;;;;18.50;86.71;101034.19;215733;1285;139140;-87
2023/09/27 18:59:41;;;;;;;19.80;9.90;;;;;;;18.42;86.62;101029.98;215432;1285;142218;-87
2023/09/27 19:04:41;;;;;;;17.70;10.20;;;;;;;18.31;86.70;101027.06;216976;1286;139106;-87
2023/09/27 19:09:42;;;;;;;17.60;10.80;;;;;;;18.21;87.56;101026.91;215407;1285;141059;-87
2023/09/27 19:14:44;;;;;;;19.50;10.90;;;;;;;18.11;88.15;101023.76;216003;1286;139409;-88
2023/09/27 19:19:44;;;;;;;17.20;10.80;;;;;;;18.05;88.40;101024.94;215615;1284;140876;-87
2023/09/27 19:24:45;;;;;;;18.00;11.40;;;;;;;17.99;88.72;101017.98;216490;1285;139730;-87
2023/09/27 19:29:45;;;;;;;18.40;10.20;;;;;;;17.93;88.38;101017.73;216013;1286;141874;-87
2023/09/27 19:34:46;;;;;;;16.60;10.70;;;;;;;17.86;88.60;101014.54;216436;1285;139579;-87
2023/09/27 19:39:47;;;;;;;20.20;11.00;;;;;;;17.75;88.92;101010.58;215771;1288;141507;-87
2023/09/27 19:44:48;;;;;;;19.80;11.80;;;;;;;17.66;89.91;101011.45;216124;1286;139511;-87
2023/09/27 19:49:48;;;;;;;20.40;11.70;;;;;;;17.59;90.71;101003.63;215608;1285;141368;-87
2023/09/27 19:54:48;;;;;;;18.60;11.00;;;;;;;17.52;90.11;101004.33;216088;1285;139048;-88
2023/09/27 19:59:49;;;;;;;19.80;11.20;;;;;;;17.48;89.69;101000.54;215603;1288;140669;-88
2023/09/27 20:04:49;;;;;;;19.40;11.30;;;;;;;17.44;89.36;101001.37;215776;1287;139296;-87
2023/09/27 20:09:50;;;;;;;19.90;12.30;;;;;;;17.40;89.24;101001.79;215457;1286;141171;-88
2023/09/27 20:14:50;;;;;;;15.70;10.60;;;;;;;17.35;88.93;100996.39;216463;1285;139176;-88
2023/09/27 20:19:51;;;;;;;18.70;11.30;;;;;;;17.31;88.94;100992.29;216357;1285;140751;-88
2023/09/27 20:24:51;;;;;;;18.30;10.90;;;;;;;17.27;88.23;100989.30;215971;1286;139145;-88
2023/09/27 20:29:52;;;;;;;23.60;11.70;;;;;;;17.24;87.66;100983.04;215615;1288;141448;-88
2023/09/27 20:34:52;;;;;;;24.50;12.10;;;;;;;17.23;87.65;100979.23;216136;1285;139134;-88
2023/09/27 20:39:53;;;;;;;21.80;11.20;;;;;;;17.20;87.76;100980.13;215782;1285;142301;-89
2023/09/27 20:44:53;;;;;;;27.50;12.70;;;;;;;17.18;87.52;100979.44;216522;1286;139112;-89
2023/09/27 20:49:53;;;;;;;25.60;11.90;;;;;;;17.16;87.27;100981.42;215156;1286;140149;-88
2023/09/27 20:54:54;;;;;;;21.50;11.80;;;;;;;17.17;87.40;100978.41;215573;1287;139701;-88
2023/09/27 20:59:54;;;;;;;19.60;11.70;;;;;;;17.15;87.47;100976.68;215041;1286;140628;-88
2023/09/27 21:04:56;;;;;;;21.80;12.90;;;;;;;17.12;88.11;100979.16;215637;1286;139107;-88
2023/09/27 21:09:56;;;;;;;23.60;13.30;;;;;;;17.07;87.92;100972.66;215608;1286;141495;-88
2023/09/27 21:14:56;;;;;;;17.80;11.40;;;;;;;17.04;87.51;100974.84;216089;1285;139245;-88
2023/09/27 21:19:57;;;;;;;21.00;12.10;;;;;;;17.01;87.84;100974.15;215590;1284;141447;-89
2023/09/27 21:24:57;;;;;;;24.00;12.40;;;;;;;16.98;87.91;100971.14;216311;1288;139134;-88
2023/09/27 21:29:58;;;;;;;18.30;11.20;;;;;;;16.94;87.92;100969.03;216170;1285;141714;-89
2023/09/27 21:34:59;;;;;;;18.60;12.10;;;;;;;16.90;87.79;100965.79;216823;1284;139227;-89
2023/09/27 21:39:59;;;;;;;25.20;12.10;;;;;;;16.88;87.40;100967.39;216402;1286;140692;-89
2023/09/27 21:44:59;;;;;;;20.60;11.90;;;;;;;16.86;87.31;100964.94;215632;1286;139354;-89
2023/09/27 21:50:00;;;;;;;22.10;12.00;;;;;;;16.83;87.35;100961.63;215286;1287;141738;-88
2023/09/27 21:55:01;;;;;;;20.70;12.10;;;;;;;16.81;87.41;100961.55;216024;1285;139576;-88
2023/09/27 22:00:01;;;;;;;18.30;11.70;;;;;;;16.80;87.42;100960.54;215966;1288;141761;-88
2023/09/27 22:05:03;;;;;;;18.30;12.10;;;;;;;16.76;87.27;100959.52;216312;1285;139089;-89
2023/09/27 22:10:05;;;;;;;17.50;10.80;;;;;;;16.72;87.73;100963.19;215821;1285;140816;-88
2023/09/27 22:15:11;;;;;;;19.00;11.90;;;;;;;16.68;87.58;100962.73;216223;1287;140090;-89
2023/09/27 22:20:12;;;;;;;23.40;12.80;;;;;;;16.64;87.82;100961.80;216135;1286;141204;-89